createdAt,value
2023-02-18T00:00:58.397Z,16.10
2023-02-18T00:03:27.916Z,15.10
2023-02-18T00:05:55.109Z,13.90
2023-02-18T00:08:22.011Z,14.97
2023-02-18T00:10:48.980Z,14.70
2023-02-18T00:13:15.757Z,16.23
2023-02-18T00:15:42.557Z,16.53
2023-02-18T00:18:09.251Z,17.60
2023-02-18T00:20:39.103Z,18.10
2023-02-18T00:23:06.451Z,18.50
2023-02-18T00:25:33.171Z,19.20
2023-02-18T00:27:59.841Z,16.60
2023-02-18T00:30:28.433Z,19.10
2023-02-18T00:32:56.255Z,21.20
2023-02-18T00:35:22.904Z,21.23
2023-02-18T00:37:52.670Z,21.87
2023-02-18T00:40:20.773Z,20.97
2023-02-18T00:42:47.573Z,20.93
2023-02-18T00:45:14.512Z,21.23
2023-02-18T00:47:41.478Z,20.50
2023-02-18T00:50:09.187Z,18.80
2023-02-18T00:52:35.862Z,18.03
2023-02-18T00:55:02.765Z,19.37
2023-02-18T00:57:29.422Z,16.50
2023-02-18T00:59:56.123Z,16.10
2023-02-18T01:02:22.790Z,15.93
2023-02-18T01:04:49.572Z,15.57
2023-02-18T01:07:17.685Z,14.63
2023-02-18T01:09:44.399Z,15.37
2023-02-18T01:12:11.108Z,15.50
2023-02-18T01:14:37.845Z,15.07
2023-02-18T01:17:05.188Z,14.77
2023-02-18T01:19:32.197Z,14.80
2023-02-18T01:22:00.179Z,15.57
2023-02-18T01:24:26.863Z,13.33
2023-02-18T01:26:53.507Z,16.40
2023-02-18T01:29:20.197Z,12.83
2023-02-18T01:31:46.905Z,14.60
2023-02-18T01:34:15.316Z,12.87
2023-02-18T01:36:42.083Z,14.13
2023-02-18T01:39:08.941Z,12.23
2023-02-18T01:41:35.618Z,13.43
2023-02-18T01:44:14.289Z,11.67
2023-02-18T01:46:41.014Z,12.10
2023-02-18T01:49:10.307Z,11.07
2023-02-18T01:51:45.154Z,9.47
2023-02-18T01:54:16.699Z,9.80
2023-02-18T01:57:04.687Z,9.00
2023-02-18T01:59:36.838Z,9.60
2023-02-18T02:02:04.258Z,8.60
2023-02-18T02:04:30.920Z,7.93
2023-02-18T02:06:57.754Z,8.93
2023-02-18T02:09:26.831Z,7.30
2023-02-18T02:12:07.246Z,8.00
2023-02-18T02:14:39.497Z,8.70
2023-02-18T02:17:34.790Z,6.20
2023-02-18T02:20:11.845Z,7.60
2023-02-18T02:22:57.031Z,6.50
2023-02-18T02:25:28.498Z,8.03
2023-02-18T02:28:08.527Z,7.50
2023-02-18T02:30:38.113Z,7.83
2023-02-18T02:33:17.905Z,8.13
2023-02-18T02:36:21.856Z,7.77
2023-02-18T02:38:52.125Z,7.20
2023-02-18T02:41:27.626Z,7.83
2023-02-18T02:44:29.243Z,7.40
2023-02-18T02:47:13.993Z,7.50
2023-02-18T02:50:18.153Z,7.60
2023-02-18T02:52:49.914Z,8.30
2023-02-18T02:55:19.632Z,8.93
2023-02-18T02:57:51.793Z,8.20
2023-02-18T03:00:45.047Z,9.03
2023-02-18T03:03:20.291Z,10.13
2023-02-18T03:06:24.493Z,11.30
2023-02-18T03:09:34.715Z,9.97
2023-02-18T03:12:23.380Z,11.80
2023-02-18T03:15:01.631Z,13.00
2023-02-18T03:17:34.882Z,11.40
2023-02-18T03:20:16.384Z,11.90
2023-02-18T03:22:48.539Z,12.90
2023-02-18T03:25:16.998Z,12.37
2023-02-18T03:27:58.386Z,12.50
2023-02-18T03:30:34.941Z,12.50
2023-02-18T03:33:09.318Z,13.60
2023-02-18T03:35:38.249Z,14.70
2023-02-18T03:38:20.383Z,15.60
2023-02-18T03:40:47.597Z,15.07
2023-02-18T03:43:14.727Z,15.33
2023-02-18T03:45:41.783Z,16.20
2023-02-18T03:48:08.490Z,15.30
2023-02-18T03:50:35.268Z,14.60
2023-02-18T03:53:01.930Z,13.30
2023-02-18T03:55:28.665Z,13.37
2023-02-18T03:57:55.742Z,11.83
2023-02-18T04:00:22.494Z,11.60
2023-02-18T04:02:49.223Z,10.13
2023-02-18T04:05:15.967Z,10.20
2023-02-18T04:07:42.626Z,7.73
2023-02-18T04:10:09.681Z,7.17
2023-02-18T04:12:36.459Z,7.60
2023-02-18T04:15:03.631Z,6.23
2023-02-18T04:17:30.345Z,4.93
2023-02-18T04:19:56.977Z,6.30
2023-02-18T04:22:24.066Z,4.57
2023-02-18T04:24:50.773Z,3.73
2023-02-18T04:27:17.441Z,4.10
2023-02-18T04:29:44.458Z,3.40
2023-02-18T04:32:11.124Z,3.63
2023-02-18T04:34:38.339Z,3.20
2023-02-18T04:37:05.345Z,3.63
2023-02-18T04:39:31.996Z,4.00
2023-02-18T04:41:58.664Z,3.30
2023-02-18T04:44:25.375Z,3.67
2023-02-18T04:46:52.055Z,3.90
2023-02-18T04:49:18.698Z,3.70
2023-02-18T04:51:45.335Z,3.27
2023-02-18T04:54:12.002Z,3.23
2023-02-18T04:56:38.670Z,3.90
2023-02-18T04:59:05.297Z,4.03
2023-02-18T05:01:32.009Z,3.30
2023-02-18T05:03:58.761Z,4.03
2023-02-18T05:06:25.432Z,3.70
2023-02-18T05:08:52.091Z,3.60
2023-02-18T05:11:18.840Z,3.53
2023-02-18T05:13:45.601Z,2.93
2023-02-18T05:16:12.583Z,4.67
2023-02-18T05:18:39.658Z,5.17
2023-02-18T05:21:06.362Z,5.30
2023-02-18T05:23:33.087Z,5.03
2023-02-18T05:26:00.020Z,6.47
2023-02-18T05:28:26.651Z,5.63
2023-02-18T05:30:53.389Z,5.20
2023-02-18T05:33:20.045Z,5.47
2023-02-18T05:35:46.714Z,4.80
2023-02-18T05:38:13.356Z,3.83
2023-02-18T05:40:40.015Z,3.80
2023-02-18T05:43:06.721Z,3.30
2023-02-18T05:45:33.445Z,3.33
2023-02-18T05:48:00.635Z,2.90
2023-02-18T05:50:28.069Z,3.20
2023-02-18T05:52:54.834Z,2.87
2023-02-18T05:55:21.579Z,3.17
2023-02-18T05:57:48.241Z,2.80
2023-02-18T06:00:15.579Z,3.20
2023-02-18T06:02:42.334Z,4.17
2023-02-18T06:05:09.700Z,3.67
2023-02-18T06:07:36.729Z,4.93
2023-02-18T06:10:05.343Z,5.43
2023-02-18T06:12:32.043Z,5.10
2023-02-18T06:14:58.750Z,4.50
2023-02-18T06:17:25.402Z,4.70
2023-02-18T06:19:52.069Z,4.33
2023-02-18T06:22:18.762Z,5.10
2023-02-18T06:24:45.494Z,6.13
2023-02-18T06:27:12.174Z,8.00
2023-02-18T06:29:38.871Z,7.30
2023-02-18T06:32:05.804Z,7.70
2023-02-18T06:34:32.525Z,7.70
2023-02-18T06:37:01.249Z,8.77
2023-02-18T06:39:28.141Z,8.20
2023-02-18T06:41:54.823Z,8.90
2023-02-18T06:44:21.483Z,8.07
2023-02-18T06:46:48.263Z,7.27
2023-02-18T06:49:14.949Z,7.10
2023-02-18T06:51:41.612Z,6.77
2023-02-18T06:54:08.375Z,6.10
2023-02-18T06:56:35.087Z,6.13
2023-02-18T06:59:01.762Z,5.60
2023-02-18T07:01:28.414Z,5.20
2023-02-18T07:03:55.190Z,4.40
2023-02-18T07:06:21.925Z,3.23
2023-02-18T07:08:48.765Z,2.63
2023-02-18T07:11:15.464Z,2.43
2023-02-18T07:13:42.166Z,3.40
2023-02-18T07:16:09.085Z,2.40
2023-02-18T07:18:35.969Z,1.80
2023-02-18T07:21:02.625Z,1.67
2023-02-18T07:23:29.362Z,1.50
2023-02-18T07:26:07.479Z,1.50
2023-02-18T07:28:34.747Z,1.57
2023-02-18T07:31:01.905Z,2.00
2023-02-18T07:33:28.638Z,1.80
2023-02-18T07:36:00.549Z,1.57
2023-02-18T07:38:27.704Z,1.87
2023-02-18T07:40:55.602Z,1.70
2023-02-18T07:43:22.891Z,1.37
2023-02-18T07:45:50.155Z,1.27
2023-02-18T07:48:17.268Z,1.63
2023-02-18T07:50:45.765Z,1.20
2023-02-18T07:53:14.104Z,1.23
2023-02-18T07:55:49.900Z,1.30
2023-02-18T07:58:26.130Z,2.07
2023-02-18T08:00:54.475Z,1.03
2023-02-18T08:03:23.936Z,1.20
2023-02-18T08:05:51.554Z,1.30
2023-02-18T08:08:21.851Z,1.40
2023-02-18T08:10:49.627Z,1.20
2023-02-18T08:13:16.323Z,1.10
2023-02-18T08:15:43.440Z,0.73
2023-02-18T08:18:16.943Z,1.17
2023-02-18T08:20:43.865Z,0.93
2023-02-18T08:23:11.053Z,1.10
2023-02-18T08:25:37.739Z,1.10
2023-02-18T08:28:05.260Z,1.00
2023-02-18T08:30:32.147Z,1.47
2023-02-18T08:32:58.942Z,1.33
2023-02-18T08:35:25.671Z,1.73
2023-02-18T08:37:53.983Z,2.00
2023-02-18T08:40:21.673Z,1.80
2023-02-18T08:42:48.423Z,1.73
2023-02-18T08:45:15.157Z,1.70
2023-02-18T08:48:17.686Z,2.07
2023-02-18T08:50:28.581Z,1.90
2023-02-18T08:52:57.037Z,2.27
2023-02-18T08:55:24.974Z,2.60
2023-02-18T08:57:52.139Z,2.87
2023-02-18T09:00:19.531Z,3.23
2023-02-18T09:02:47.710Z,3.67
2023-02-18T09:05:14.552Z,3.17
2023-02-18T09:07:41.451Z,3.27
2023-02-18T09:10:08.971Z,3.40
2023-02-18T09:12:35.919Z,3.77
2023-02-18T09:15:03.056Z,3.30
2023-02-18T09:17:29.702Z,3.33
2023-02-18T09:19:56.581Z,3.73
2023-02-18T09:22:23.475Z,4.23
2023-02-18T09:24:50.257Z,3.10
2023-02-18T09:27:16.914Z,3.63
2023-02-18T09:29:44.254Z,3.47
2023-02-18T09:32:14.512Z,3.27
2023-02-18T09:34:46.559Z,3.67
2023-02-18T09:37:14.552Z,3.33
2023-02-18T09:39:41.537Z,3.57
2023-02-18T09:42:14.562Z,3.20
2023-02-18T09:44:47.029Z,3.90
2023-02-18T09:47:41.131Z,3.37
2023-02-18T09:50:09.261Z,3.13
2023-02-18T09:52:38.298Z,3.50
2023-02-18T09:55:24.627Z,3.40
2023-02-18T09:57:57.093Z,3.40
2023-02-18T10:00:50.589Z,3.10
2023-02-18T10:03:20.551Z,2.60
2023-02-18T10:06:04.101Z,3.70
2023-02-18T10:08:41.882Z,3.93
2023-02-18T10:11:41.855Z,2.77
2023-02-18T10:14:13.719Z,2.80
2023-02-18T10:16:41.274Z,3.30
2023-02-18T10:19:38.716Z,2.90
2023-02-18T10:22:08.245Z,2.73
2023-02-18T10:24:37.621Z,2.70
2023-02-18T10:27:06.679Z,3.63
2023-02-18T10:29:34.476Z,3.80
2023-02-18T10:32:24.335Z,3.70
2023-02-18T10:35:06.827Z,4.20
2023-02-18T10:37:50.148Z,4.87
2023-02-18T10:40:44.973Z,4.00
2023-02-18T10:43:37.840Z,4.50
2023-02-18T10:46:29.794Z,3.40
2023-02-18T10:49:15.286Z,3.77
2023-02-18T10:51:50.109Z,3.80
2023-02-18T10:54:16.793Z,3.80
2023-02-18T10:56:51.409Z,2.87
2023-02-18T10:59:23.847Z,3.33
2023-02-18T11:02:17.242Z,3.93
2023-02-18T11:04:46.214Z,3.73
2023-02-18T11:07:23.117Z,3.93
2023-02-18T11:09:53.643Z,4.90
2023-02-18T11:12:31.536Z,4.23
2023-02-18T11:15:17.472Z,4.10
2023-02-18T11:17:49.352Z,5.17
2023-02-18T11:20:28.314Z,4.40
2023-02-18T11:23:19.167Z,5.27
2023-02-18T11:26:07.419Z,6.00
2023-02-18T11:28:42.106Z,4.73
2023-02-18T11:31:11.932Z,4.67
2023-02-18T11:33:44.536Z,4.60
2023-02-18T11:36:20.107Z,4.50
2023-02-18T11:38:59.572Z,5.10
2023-02-18T11:41:48.198Z,4.80
2023-02-18T11:44:32.928Z,5.50
2023-02-18T11:47:20.041Z,5.37
2023-02-18T11:50:19.858Z,5.23
2023-02-18T11:52:49.168Z,5.20
2023-02-18T11:55:20.912Z,5.37
2023-02-18T11:57:57.440Z,5.57
2023-02-18T12:00:43.025Z,6.63
2023-02-18T12:03:35.304Z,5.47
2023-02-18T12:06:06.124Z,8.07
2023-02-18T12:08:38.448Z,8.10
2023-02-18T12:11:14.296Z,7.80
2023-02-18T12:13:52.330Z,6.73
2023-02-18T12:16:26.647Z,6.73
2023-02-18T12:19:30.216Z,7.53
2023-02-18T12:22:19.626Z,6.33
2023-02-18T12:25:14.974Z,7.70
2023-02-18T12:27:56.586Z,8.30
2023-02-18T12:30:41.583Z,6.67
2023-02-18T12:33:29.106Z,8.00
2023-02-18T12:36:17.409Z,10.40
2023-02-18T12:39:17.928Z,14.40
2023-02-18T12:42:18.452Z,10.37
2023-02-18T12:45:01.028Z,10.23
2023-02-18T12:47:46.983Z,11.60
2023-02-18T12:50:28.252Z,9.17
2023-02-18T12:53:24.840Z,9.10
2023-02-18T12:56:07.501Z,10.07
2023-02-18T12:59:08.151Z,9.23
2023-02-18T13:01:41.010Z,8.70
2023-02-18T13:04:24.354Z,9.30
2023-02-18T13:07:26.302Z,9.50
2023-02-18T13:10:07.644Z,10.20
2023-02-18T13:12:50.112Z,9.30
2023-02-18T13:15:23.269Z,10.67
2023-02-18T13:17:51.329Z,11.13
2023-02-18T13:20:23.713Z,11.80
2023-02-18T13:22:53.219Z,11.80
2023-02-18T13:25:21.194Z,10.13
2023-02-18T13:28:09.767Z,10.30
2023-02-18T13:30:50.928Z,9.67
2023-02-18T13:33:32.813Z,10.30
2023-02-18T13:36:08.572Z,10.53
2023-02-18T13:38:56.526Z,10.80
2023-02-18T13:41:26.325Z,11.37
2023-02-18T13:43:53.781Z,13.70
2023-02-18T13:46:25.073Z,11.10
2023-02-18T13:48:53.347Z,11.50
2023-02-18T13:51:40.707Z,10.70
2023-02-18T13:54:13.193Z,12.07
2023-02-18T13:56:46.014Z,11.00
2023-02-18T13:59:42.860Z,11.80
2023-02-18T14:02:25.242Z,10.83
2023-02-18T14:04:53.334Z,11.33
2023-02-18T14:07:41.583Z,11.97
2023-02-18T14:10:17.000Z,11.37
2023-02-18T14:12:51.684Z,11.43
2023-02-18T14:15:18.576Z,11.10
2023-02-18T14:18:09.980Z,11.57
2023-02-18T14:20:39.358Z,12.20
2023-02-18T14:23:18.309Z,10.63
2023-02-18T14:26:12.758Z,10.80
2023-02-18T14:28:48.500Z,11.63
2023-02-18T14:31:15.341Z,10.83
2023-02-18T14:33:59.860Z,11.20
2023-02-18T14:36:51.192Z,13.50
2023-02-18T14:39:48.499Z,11.90
2023-02-18T14:42:42.066Z,11.50
2023-02-18T14:45:19.526Z,11.80
2023-02-18T14:47:55.983Z,11.70
2023-02-18T14:50:23.521Z,11.77
2023-02-18T14:53:05.701Z,13.10
2023-02-18T14:55:36.025Z,15.20
2023-02-18T14:58:13.370Z,14.77
2023-02-18T15:00:42.044Z,13.00
2023-02-18T15:03:15.426Z,12.40
2023-02-18T15:05:44.148Z,11.63
2023-02-18T15:08:19.761Z,12.93
2023-02-18T15:10:52.519Z,17.27
2023-02-18T15:13:26.820Z,15.73
2023-02-18T15:16:03.458Z,15.50
2023-02-18T15:18:36.070Z,15.80
2023-02-18T15:21:05.006Z,14.53
2023-02-18T15:23:39.369Z,14.93
2023-02-18T15:26:10.582Z,12.83
2023-02-18T15:28:43.122Z,13.03
2023-02-18T15:31:15.162Z,12.87
2023-02-18T15:33:48.033Z,13.20
2023-02-18T15:36:15.218Z,12.77
2023-02-18T15:38:42.914Z,11.70
2023-02-18T15:41:13.926Z,12.50
2023-02-18T15:44:05.444Z,11.97
2023-02-18T15:46:32.991Z,11.83
2023-02-18T15:49:00.886Z,11.10
2023-02-18T15:51:31.867Z,11.10
2023-02-18T15:54:01.049Z,10.43
2023-02-18T15:56:35.448Z,11.50
2023-02-18T15:59:21.939Z,12.03
2023-02-18T16:01:54.568Z,11.70
2023-02-18T16:04:23.506Z,12.83
2023-02-18T16:06:53.123Z,16.17
2023-02-18T16:09:36.463Z,17.53
2023-02-18T16:12:13.388Z,16.70
2023-02-18T16:14:44.850Z,15.77
2023-02-18T16:17:11.626Z,16.80
2023-02-18T16:20:05.205Z,15.50
2023-02-18T16:22:36.099Z,14.40
2023-02-18T16:25:35.139Z,15.90
2023-02-18T16:28:01.756Z,17.63
2023-02-18T16:30:32.666Z,20.57
2023-02-18T16:33:00.531Z,16.40
2023-02-18T16:35:32.689Z,18.17
2023-02-18T16:38:04.372Z,17.50
2023-02-18T16:40:36.531Z,21.60
2023-02-18T16:43:20.169Z,20.27
2023-02-18T16:45:50.264Z,21.20
2023-02-18T16:48:40.523Z,20.33
2023-02-18T16:51:18.007Z,19.83
2023-02-18T16:53:45.257Z,16.73
2023-02-18T16:56:21.426Z,17.77
2023-02-18T16:58:48.121Z,18.73
2023-02-18T17:01:34.525Z,16.80
2023-02-18T17:04:02.614Z,16.83
2023-02-18T17:06:30.231Z,15.90
2023-02-18T17:08:56.967Z,17.37
2023-02-18T17:11:29.828Z,15.60
2023-02-18T17:13:59.242Z,13.23
2023-02-18T17:16:27.066Z,13.83
2023-02-18T17:18:54.822Z,13.27
2023-02-18T17:21:24.225Z,12.57
2023-02-18T17:23:51.488Z,12.93
2023-02-18T17:26:27.621Z,12.30
2023-02-18T17:28:56.469Z,10.83
2023-02-18T17:31:44.297Z,10.53
2023-02-18T17:34:16.270Z,10.60
2023-02-18T17:36:45.337Z,10.23
2023-02-18T17:39:14.618Z,10.87
2023-02-18T17:41:42.710Z,10.97
2023-02-18T17:44:17.023Z,11.40
2023-02-18T17:46:44.098Z,11.47
2023-02-18T17:49:10.746Z,11.87
2023-02-18T17:51:39.070Z,13.70
2023-02-18T17:54:18.037Z,13.20
2023-02-18T17:56:45.502Z,16.33
2023-02-18T17:59:12.564Z,21.13
2023-02-18T18:01:39.701Z,16.37
2023-02-18T18:04:24.342Z,14.50
2023-02-18T18:06:51.107Z,14.60
2023-02-18T18:09:18.286Z,13.30
2023-02-18T18:11:44.924Z,13.40
2023-02-18T18:14:15.101Z,13.30
2023-02-18T18:16:41.786Z,12.27
2023-02-18T18:19:08.436Z,13.73
2023-02-18T18:21:35.776Z,12.73
2023-02-18T18:24:03.044Z,13.63
2023-02-18T18:26:30.279Z,11.17
2023-02-18T18:28:57.035Z,13.10
2023-02-18T18:31:23.823Z,10.47
2023-02-18T18:33:53.004Z,14.00
2023-02-18T18:36:21.603Z,11.50
2023-02-18T18:38:48.675Z,13.03
2023-02-18T18:41:18.289Z,12.83
2023-02-18T18:43:44.993Z,12.90
2023-02-18T18:46:12.097Z,15.67
2023-02-18T18:48:39.647Z,14.60
2023-02-18T18:51:06.656Z,17.07
2023-02-18T18:53:34.847Z,15.83
2023-02-18T18:56:04.664Z,13.47
2023-02-18T18:58:31.913Z,16.40
2023-02-18T19:01:01.697Z,15.47
2023-02-18T19:03:29.321Z,15.83
2023-02-18T19:05:56.941Z,15.93
2023-02-18T19:08:24.568Z,17.23
2023-02-18T19:10:54.385Z,15.93
2023-02-18T19:13:24.901Z,16.20
2023-02-18T19:16:01.023Z,15.97
2023-02-18T19:18:28.816Z,16.63
2023-02-18T19:20:56.225Z,17.27
2023-02-18T19:23:22.942Z,17.23
2023-02-18T19:25:49.577Z,17.30
2023-02-18T19:28:16.343Z,16.80
2023-02-18T19:30:43.110Z,16.77
2023-02-18T19:33:12.558Z,16.60
2023-02-18T19:35:40.166Z,17.10
2023-02-18T19:38:11.510Z,17.20
2023-02-18T19:40:39.369Z,15.27
2023-02-18T19:43:07.292Z,15.80
2023-02-18T19:45:34.370Z,17.10
2023-02-18T19:48:01.865Z,15.47
2023-02-18T19:50:32.404Z,16.60
2023-02-18T19:52:59.909Z,17.27
2023-02-18T19:55:26.672Z,16.90
2023-02-18T19:57:53.563Z,15.50
2023-02-18T20:00:24.738Z,15.70
2023-02-18T20:02:51.691Z,16.50
2023-02-18T20:05:19.015Z,15.40
2023-02-18T20:07:46.653Z,16.40
2023-02-18T20:10:16.679Z,15.40
2023-02-18T20:12:43.877Z,15.30
2023-02-18T20:15:10.997Z,15.80
2023-02-18T20:17:39.194Z,15.53
2023-02-18T20:20:07.437Z,14.77
2023-02-18T20:22:34.253Z,17.13
2023-02-18T20:25:00.960Z,15.30
2023-02-18T20:27:27.654Z,14.03
2023-02-18T20:29:54.343Z,14.73
2023-02-18T20:32:21.087Z,13.47
2023-02-18T20:34:47.920Z,13.43
2023-02-18T20:37:14.668Z,13.83
2023-02-18T20:39:41.389Z,13.20
2023-02-18T20:42:16.031Z,14.13
2023-02-18T20:44:46.744Z,14.60
2023-02-18T20:47:13.656Z,13.50
2023-02-18T20:49:41.696Z,12.57
2023-02-18T20:52:10.075Z,12.60
2023-02-18T20:54:37.181Z,13.07
2023-02-18T20:57:03.997Z,13.87
2023-02-18T20:59:33.104Z,13.73
2023-02-18T21:01:59.811Z,13.10
2023-02-18T21:04:27.267Z,13.00
2023-02-18T21:06:54.163Z,12.67
2023-02-18T21:09:21.492Z,13.13
2023-02-18T21:11:48.953Z,13.70
2023-02-18T21:14:15.721Z,13.90
2023-02-18T21:16:42.555Z,14.07
2023-02-18T21:19:15.576Z,13.53
2023-02-18T21:21:43.590Z,15.47
2023-02-18T21:24:10.737Z,13.13
2023-02-18T21:26:37.808Z,12.40
2023-02-18T21:29:07.878Z,12.10
2023-02-18T21:31:41.120Z,13.60
2023-02-18T21:34:11.683Z,13.30
2023-02-18T21:36:38.673Z,12.07
2023-02-18T21:39:09.031Z,12.83
2023-02-18T21:41:40.089Z,13.97
2023-02-18T21:44:08.968Z,13.67
2023-02-18T21:46:36.745Z,13.93
2023-02-18T21:49:12.193Z,13.40
2023-02-18T21:51:56.397Z,12.60
2023-02-18T21:54:27.442Z,13.40
2023-02-18T21:56:55.528Z,13.60
2023-02-18T21:59:24.065Z,12.47
2023-02-18T22:01:50.718Z,11.90
2023-02-18T22:04:17.508Z,11.53
2023-02-18T22:06:45.000Z,11.83
2023-02-18T22:09:12.457Z,10.77
2023-02-18T22:11:41.865Z,10.63
2023-02-18T22:14:13.087Z,11.20
2023-02-18T22:16:40.407Z,10.50
2023-02-18T22:19:07.401Z,12.00
2023-02-18T22:21:34.359Z,12.53
2023-02-18T22:24:01.127Z,14.23
2023-02-18T22:26:27.814Z,14.90
2023-02-18T22:28:56.603Z,15.30
2023-02-18T22:31:24.181Z,14.87
2023-02-18T22:33:55.785Z,16.33
2023-02-18T22:36:24.652Z,16.30
2023-02-18T22:38:52.122Z,14.90
2023-02-18T22:41:20.507Z,17.40
2023-02-18T22:43:47.720Z,17.30
2023-02-18T22:46:18.955Z,17.40
2023-02-18T22:48:45.752Z,16.03
2023-02-18T22:51:12.512Z,17.63
2023-02-18T22:53:40.105Z,17.30
2023-02-18T22:56:15.628Z,19.40
2023-02-18T22:58:43.450Z,15.80
2023-02-18T23:01:23.815Z,16.90
2023-02-18T23:03:52.332Z,16.00
2023-02-18T23:06:20.730Z,16.77
2023-02-18T23:08:48.585Z,16.13
2023-02-18T23:11:18.098Z,15.73
2023-02-18T23:14:05.810Z,16.00
2023-02-18T23:16:33.125Z,16.20
2023-02-18T23:18:59.856Z,13.87
2023-02-18T23:21:26.561Z,14.20
2023-02-18T23:23:55.980Z,12.63
2023-02-18T23:26:25.067Z,10.90
2023-02-18T23:28:53.227Z,11.67
2023-02-18T23:31:21.395Z,10.87
2023-02-18T23:33:52.283Z,11.90
2023-02-18T23:36:21.913Z,11.30
2023-02-18T23:38:49.653Z,12.23
2023-02-18T23:41:17.573Z,11.70
2023-02-18T23:43:45.034Z,11.80
2023-02-18T23:46:12.466Z,14.13
2023-02-18T23:48:39.449Z,13.47
2023-02-18T23:51:08.450Z,13.37
2023-02-18T23:53:37.018Z,13.90
2023-02-18T23:56:19.415Z,13.60
2023-02-18T23:58:52.511Z,15.07
